Girdwood Airport


Codes: AQY/AQY
Name: Girdwood Airport
City: Girdwood
Country: United States
Elevation: 150 ft.

Photos at Girdwood Airport


   Photos courtesy of SpottingLog. You can add your own sightings and photos by signing up for a free trial today.



No photos found.

Weather at Girdwood Airport


Time (UTC)DescriptionTempratureWindCloud coverageVisibilityPressureHumidity
16-Jun-2024 12:00Few Clouds14°C2 mph, NE20%10000m1020hPa84%
16-Jun-2024 15:00Clear Sky15°C0 mph, NE10%10000m1019hPa76%
16-Jun-2024 18:00Light Rain19°C2 mph, SW5%10000m1019hPa69%
16-Jun-2024 21:00Light Rain21°C2 mph, S6%10000m1018hPa57%
17-Jun-2024 00:00Light Rain22°C2 mph, S8%10000m1017hPa50%
17-Jun-2024 03:00Light Rain21°C2 mph, SE16%10000m1017hPa52%
17-Jun-2024 06:00Light Rain18°C2 mph, NE13%10000m1017hPa71%
17-Jun-2024 09:00Light Rain15°C2 mph, N9%10000m1018hPa82%
17-Jun-2024 12:00Clear Sky14°C2 mph, N9%10000m1017hPa88%
17-Jun-2024 15:00Clear Sky15°C2 mph, N9%10000m1016hPa84%
17-Jun-2024 18:00Clear Sky18°C0 mph, SW9%10000m1016hPa71%
17-Jun-2024 21:00Light Rain20°C2 mph, S21%10000m1015hPa60%
18-Jun-2024 00:00Light Rain21°C2 mph, SE18%10000m1014hPa54%
18-Jun-2024 03:00Light Rain20°C2 mph, SE14%10000m1014hPa58%
18-Jun-2024 06:00Light Rain16°C2 mph, NE14%10000m1015hPa74%
18-Jun-2024 09:00Scattered Clouds13°C2 mph, NE33%10000m1016hPa79%
18-Jun-2024 12:00Scattered Clouds12°C2 mph, NE42%10000m1016hPa81%
18-Jun-2024 15:00Broken Clouds13°C2 mph, E59%10000m1015hPa76%
18-Jun-2024 18:00Broken Clouds16°C2 mph, SE61%10000m1015hPa70%
18-Jun-2024 21:00Broken Clouds18°C2 mph, SE51%10000m1014hPa63%
19-Jun-2024 00:00Light Rain18°C4 mph, SE59%10000m1014hPa59%
19-Jun-2024 03:00Light Rain17°C2 mph, SE85%10000m1014hPa63%
19-Jun-2024 06:00Overcast Clouds14°C2 mph, E90%10000m1015hPa73%
19-Jun-2024 09:00Overcast Clouds12°C2 mph, N97%10000m1016hPa78%
19-Jun-2024 12:00Overcast Clouds11°C2 mph, NW97%10000m1016hPa80%
19-Jun-2024 15:00Overcast Clouds12°C2 mph, NW89%10000m1015hPa78%
19-Jun-2024 18:00Overcast Clouds14°C0 mph, S94%10000m1015hPa68%
19-Jun-2024 21:00Overcast Clouds17°C2 mph, SE93%10000m1014hPa55%
20-Jun-2024 00:00Overcast Clouds18°C4 mph, SE85%10000m1013hPa47%
20-Jun-2024 03:00Overcast Clouds17°C4 mph, SE89%10000m1013hPa48%
20-Jun-2024 06:00Overcast Clouds14°C4 mph, E93%10000m1014hPa64%
20-Jun-2024 09:00Overcast Clouds11°C4 mph, E97%10000m1014hPa65%
20-Jun-2024 12:00Overcast Clouds11°C4 mph, E98%10000m1014hPa64%
20-Jun-2024 15:00Overcast Clouds12°C4 mph, E100%10000m1013hPa61%
20-Jun-2024 18:00Overcast Clouds14°C4 mph, SE100%10000m1012hPa59%
20-Jun-2024 21:00Overcast Clouds16°C4 mph, SE100%10000m1012hPa55%
21-Jun-2024 00:00Overcast Clouds17°C7 mph, SE100%10000m1011hPa55%
21-Jun-2024 03:00Overcast Clouds15°C7 mph, SE100%10000m1013hPa65%
21-Jun-2024 06:00Overcast Clouds12°C7 mph, E100%10000m1014hPa76%
21-Jun-2024 09:00Overcast Clouds11°C4 mph, E100%10000m1015hPa87%